Time;durP1;ratioP1;P1;durP2;ratioP2;P2;SDS_P1;SDS_P2;PMS_P1;PMS_P2;Temp;Humidity;BMP_temperature;BMP_pressure;BME280_temperature;BME280_humidity;BME280_pressure;Samples;Min_cycle;Max_cycle;Signal;HPM_P1;HPM_P2
2024/04/01 00:00:58;;;;;;;8.77;4.55;;;;;;;14.51;63.52;99394.84;4928380;28;96764;-81
2024/04/01 00:03:23;;;;;;;13.07;4.80;;;;;;;14.47;63.52;99385.31;4944886;28;96885;-81
2024/04/01 00:05:57;;;;;;;11.02;5.53;;;;;;;14.41;63.59;99377.63;4926427;28;100325;-81
2024/04/01 00:08:22;;;;;;;12.18;5.30;;;;;;;14.37;63.67;99383.84;4939488;28;100141;-81
2024/04/01 00:10:48;;;;;;;18.92;5.20;;;;;;;14.34;63.79;99391.81;4941439;28;96993;-81
2024/04/01 00:13:18;;;;;;;11.10;5.43;;;;;;;14.30;63.91;99395.41;4943835;28;96942;-81
2024/04/01 00:15:43;;;;;;;11.65;5.40;;;;;;;14.29;63.97;99399.78;4927923;28;100832;-82
2024/04/01 00:18:09;;;;;;;12.05;5.53;;;;;;;14.25;63.89;99401.63;4924792;28;100725;-82
2024/04/01 00:20:35;;;;;;;10.68;5.32;;;;;;;14.23;63.97;99399.94;4943611;28;96885;-80
2024/04/01 00:23:00;;;;;;;9.90;5.63;;;;;;;14.21;64.05;99386.88;4943037;28;96935;-82
2024/04/01 00:25:26;;;;;;;14.85;5.85;;;;;;;14.20;63.98;99387.75;4938255;28;100719;-83
2024/04/01 00:27:54;;;;;;;12.32;5.75;;;;;;;14.19;63.99;99375.56;4943132;28;100295;-80
2024/04/01 00:30:19;;;;;;;11.80;5.93;;;;;;;14.17;64.02;99376.47;4937621;28;97190;-80
2024/04/01 00:32:45;;;;;;;10.52;5.60;;;;;;;14.13;63.48;99375.69;4940997;28;96958;-80
2024/04/01 00:35:11;;;;;;;10.93;5.40;;;;;;;14.12;63.55;99373.13;4941888;28;100356;-80
2024/04/01 00:37:37;;;;;;;11.00;4.78;;;;;;;14.09;63.61;99366.19;4944631;28;100042;-80
2024/04/01 00:40:06;;;;;;;10.73;5.18;;;;;;;14.04;63.50;99365.47;4941342;28;96891;-80
2024/04/01 00:42:33;;;;;;;8.35;4.93;;;;;;;14.01;63.46;99368.16;4942555;28;97022;-80
2024/04/01 00:44:58;;;;;;;9.10;6.05;;;;;;;13.97;63.63;99369.13;4941819;28;100661;-79
2024/04/01 00:47:24;;;;;;;12.35;6.00;;;;;;;13.95;63.72;99376.19;4943262;28;97781;-80
2024/04/01 00:49:50;;;;;;;10.23;5.60;;;;;;;13.90;63.73;99371.91;4943030;28;96874;-82
2024/04/01 00:52:17;;;;;;;13.60;5.45;;;;;;;13.87;63.72;99373.75;4927496;28;96872;-80
2024/04/01 00:54:45;;;;;;;11.98;5.63;;;;;;;13.85;63.71;99365.94;4944960;28;98137;-80
2024/04/01 00:57:11;;;;;;;13.57;5.97;;;;;;;13.80;63.59;99348.59;4936598;28;100252;-80
2024/04/01 00:59:37;;;;;;;11.25;5.10;;;;;;;13.77;63.54;99351.28;4928675;28;96999;-80
2024/04/01 01:02:03;;;;;;;12.07;5.88;;;;;;;13.72;63.72;99351.38;4938702;28;96981;-82
2024/04/01 01:04:29;;;;;;;11.38;5.72;;;;;;;13.68;63.54;99347.13;4944712;28;97562;-80
2024/04/01 01:06:55;;;;;;;12.38;5.22;;;;;;;13.66;63.47;99343.69;4940071;28;97951;-80
2024/04/01 01:09:21;;;;;;;11.75;5.57;;;;;;;13.60;64.07;99339.47;4929124;28;96841;-80
2024/04/01 01:11:46;;;;;;;8.10;5.25;;;;;;;13.56;63.49;99358.75;4942662;28;97569;-80
2024/04/01 01:14:12;;;;;;;12.50;5.10;;;;;;;13.51;63.51;99351.00;4924539;28;100653;-80
2024/04/01 01:16:37;;;;;;;8.73;5.18;;;;;;;13.47;63.52;99348.50;4944891;28;97560;-80
2024/04/01 01:19:05;;;;;;;11.55;5.05;;;;;;;13.44;63.69;99351.16;4938377;28;109506;-80
2024/04/01 01:21:30;;;;;;;10.07;4.70;;;;;;;13.39;63.22;99350.44;4945416;28;96851;-80
2024/04/01 01:23:56;;;;;;;10.93;5.28;;;;;;;13.35;63.36;99360.13;4928105;28;100380;-80
2024/04/01 01:26:21;;;;;;;7.43;4.57;;;;;;;13.30;63.57;99357.56;4940526;28;97806;-80
2024/04/01 01:28:48;;;;;;;7.00;4.72;;;;;;;13.25;63.41;99362.03;4919760;28;96904;-80
2024/04/01 01:31:13;;;;;;;14.73;5.47;;;;;;;13.20;63.39;99363.03;4944860;28;97358;-80
2024/04/01 01:33:39;;;;;;;8.73;4.85;;;;;;;13.14;63.50;99364.88;4918616;28;100419;-80
2024/04/01 01:36:05;;;;;;;11.20;4.78;;;;;;;13.09;63.57;99361.50;4918184;28;100267;-79
2024/04/01 01:38:31;;;;;;;13.25;4.90;;;;;;;13.04;63.31;99360.75;4943690;28;96778;-79
2024/04/01 01:40:57;;;;;;;9.48;5.32;;;;;;;13.00;63.30;99372.19;4928370;28;96889;-80
2024/04/01 01:43:22;;;;;;;10.98;6.13;;;;;;;12.97;63.63;99377.47;4943624;28;97647;-80
2024/04/01 01:45:47;;;;;;;10.32;4.97;;;;;;;12.97;63.73;99379.22;4936396;28;97824;-82
2024/04/01 01:48:13;;;;;;;9.32;5.22;;;;;;;12.96;63.74;99370.53;4936311;28;103394;-81
2024/04/01 01:50:38;;;;;;;10.60;5.57;;;;;;;12.94;63.86;99370.56;4917940;28;96804;-80
2024/04/01 01:53:04;;;;;;;11.10;5.38;;;;;;;12.94;63.80;99370.56;4944434;28;97945;-80
2024/04/01 01:55:29;;;;;;;8.98;4.82;;;;;;;12.95;63.81;99374.88;4932412;28;100151;-81
2024/04/01 01:57:54;;;;;;;11.27;5.10;;;;;;;12.95;63.89;99371.41;4919651;28;97063;-80
2024/04/01 02:00:20;;;;;;;12.65;5.28;;;;;;;12.94;63.85;99372.28;4945513;28;96854;-81
2024/04/01 02:02:45;;;;;;;14.57;5.20;;;;;;;12.94;63.91;99378.41;4948420;28;97660;-81
2024/04/01 02:05:11;;;;;;;8.90;4.78;;;;;;;12.93;64.06;99379.28;4940659;28;100680;-81
2024/04/01 02:07:36;;;;;;;10.32;5.40;;;;;;;12.92;63.83;99374.06;4914912;28;96837;-80
2024/04/01 02:10:02;;;;;;;8.75;5.32;;;;;;;12.90;63.76;99375.88;4943693;28;96996;-80
2024/04/01 02:12:28;;;;;;;10.00;4.72;;;;;;;12.87;63.91;99373.31;4944756;28;100205;-80
2024/04/01 02:14:54;;;;;;;10.00;5.28;;;;;;;12.85;63.81;99372.47;4926451;28;100673;-81
2024/04/01 02:17:19;;;;;;;8.93;4.68;;;;;;;12.83;63.78;99376.88;4929959;28;97432;-80
2024/04/01 02:19:45;;;;;;;8.05;4.85;;;;;;;12.81;63.68;99382.16;4930637;28;97180;-80
2024/04/01 02:22:14;;;;;;;7.18;4.88;;;;;;;12.79;63.66;99377.84;4946349;28;97496;-81
2024/04/01 02:24:41;;;;;;;9.00;4.63;;;;;;;12.77;63.70;99383.13;4928270;28;100778;-80
2024/04/01 02:27:09;;;;;;;8.70;4.35;;;;;;;12.76;63.79;99379.66;4941001;28;96806;-81
2024/04/01 02:29:34;;;;;;;10.43;4.20;;;;;;;12.74;63.82;99377.94;4943019;28;96795;-80
2024/04/01 02:32:00;;;;;;;7.95;4.65;;;;;;;12.72;63.58;99375.34;4946313;28;98039;-80
2024/04/01 02:34:25;;;;;;;8.00;4.82;;;;;;;12.70;63.75;99373.66;4943237;28;97879;-80
2024/04/01 02:36:51;;;;;;;8.73;4.97;;;;;;;12.68;63.64;99376.31;4947161;28;96786;-80
2024/04/01 02:39:16;;;;;;;10.75;5.18;;;;;;;12.67;63.34;99373.72;4927966;28;96867;-80
2024/04/01 02:41:46;;;;;;;8.75;4.70;;;;;;;12.67;63.51;99365.88;4945848;28;97760;-80
2024/04/01 02:44:12;;;;;;;7.88;4.90;;;;;;;12.65;63.61;99381.59;4945996;28;97935;-80
2024/04/01 02:46:39;;;;;;;9.98;5.10;;;;;;;12.64;63.50;99373.75;4952669;28;96772;-80
2024/04/01 02:49:04;;;;;;;8.73;4.90;;;;;;;12.61;63.61;99371.22;4945279;28;97011;-80
2024/04/01 02:51:30;;;;;;;8.52;4.80;;;;;;;12.61;63.47;99379.06;4947125;28;97657;-80
2024/04/01 02:53:55;;;;;;;10.98;4.80;;;;;;;12.61;63.69;99387.78;4929905;28;100675;-81
2024/04/01 02:56:21;;;;;;;10.07;5.10;;;;;;;12.60;63.72;99386.03;4924098;28;96873;-80
2024/04/01 02:58:46;;;;;;;7.38;4.38;;;;;;;12.60;63.86;99378.19;4944251;28;96812;-80
2024/04/01 03:01:12;;;;;;;11.10;5.30;;;;;;;12.61;63.96;99389.53;4922643;28;100972;-80
2024/04/01 03:03:38;;;;;;;12.23;5.22;;;;;;;12.62;63.81;99388.63;4945812;28;100442;-80
2024/04/01 03:06:06;;;;;;;10.68;4.72;;;;;;;12.62;64.14;99381.66;4942699;28;96872;-80
2024/04/01 03:08:32;;;;;;;9.35;5.15;;;;;;;12.61;63.97;99390.41;4943733;28;96876;-80
2024/04/01 03:11:01;;;;;;;8.77;4.78;;;;;;;12.62;64.29;99384.28;4946302;28;97980;-80
2024/04/01 03:13:27;;;;;;;10.57;5.60;;;;;;;12.64;64.07;99387.72;4946347;28;100790;-80
2024/04/01 03:15:53;;;;;;;9.18;5.15;;;;;;;12.65;64.11;99388.59;4947023;28;96807;-80
2024/04/01 03:18:20;;;;;;;14.32;5.20;;;;;;;12.65;64.16;99388.59;4946854;28;96841;-80
2024/04/01 03:20:47;;;;;;;9.02;4.88;;;;;;;12.64;64.04;99394.69;4946216;28;98100;-80
2024/04/01 03:23:13;;;;;;;11.85;5.10;;;;;;;12.64;63.84;99382.50;4942529;28;99952;-80
2024/04/01 03:25:39;;;;;;;9.18;5.60;;;;;;;12.65;64.19;99381.59;4941307;28;97194;-80
2024/04/01 03:28:04;;;;;;;9.68;5.25;;;;;;;12.65;64.19;99384.19;4929408;28;96906;-80
2024/04/01 03:30:30;;;;;;;9.55;5.95;;;;;;;12.66;64.19;99379.84;4946375;28;101191;-80
2024/04/01 03:32:55;;;;;;;9.25;5.10;;;;;;;12.66;64.38;99369.38;4940541;28;100456;-80
2024/04/01 03:35:21;;;;;;;10.65;5.57;;;;;;;12.67;64.18;99379.78;4943280;28;97229;-80
2024/04/01 03:37:46;;;;;;;10.63;5.80;;;;;;;12.69;64.15;99385.88;4933526;28;96854;-80
2024/04/01 03:40:12;;;;;;;12.88;5.90;;;;;;;12.69;64.25;99377.16;4942048;28;97755;-80
2024/04/01 03:42:38;;;;;;;10.48;5.38;;;;;;;12.66;64.35;99375.47;4945387;28;100345;-80
2024/04/01 03:45:06;;;;;;;8.98;5.45;;;;;;;12.66;64.27;99375.47;4945177;28;96780;-80
2024/04/01 03:47:34;;;;;;;11.93;5.35;;;;;;;12.68;64.32;99370.22;4926707;28;96869;-80
2024/04/01 03:50:00;;;;;;;11.23;5.63;;;;;;;12.68;64.28;99365.00;4947216;28;97889;-80
2024/04/01 03:52:26;;;;;;;9.25;5.60;;;;;;;12.68;64.24;99365.84;4937554;28;97598;-80
2024/04/01 03:54:51;;;;;;;9.20;5.43;;;;;;;12.69;64.15;99362.34;4945036;28;96809;-80
2024/04/01 03:57:17;;;;;;;9.77;5.68;;;;;;;12.70;64.19;99360.59;4935186;28;96951;-80
2024/04/01 03:59:43;;;;;;;9.02;5.90;;;;;;;12.70;64.00;99363.19;4930103;28;100347;-80
2024/04/01 04:02:08;;;;;;;9.32;5.75;;;;;;;12.69;63.93;99364.97;4942474;28;97822;-80
2024/04/01 04:04:34;;;;;;;11.30;5.28;;;;;;;12.70;64.07;99365.81;4934053;28;97230;-80
2024/04/01 04:06:59;;;;;;;8.10;5.55;;;;;;;12.67;64.11;99364.09;4937571;28;96822;-81
2024/04/01 04:09:26;;;;;;;8.13;4.85;;;;;;;12.67;63.97;99363.25;4943347;28;97966;-80
2024/04/01 04:11:52;;;;;;;9.23;5.28;;;;;;;12.66;64.06;99372.88;4947839;28;97638;-80
2024/04/01 04:14:18;;;;;;;8.20;4.53;;;;;;;12.65;63.99;99365.88;4944557;28;97067;-80
2024/04/01 04:16:47;;;;;;;9.63;5.57;;;;;;;12.60;63.97;99372.09;4938875;28;96839;-80
2024/04/01 04:19:13;;;;;;;;;;;;;;;12.54;64.02;99365.25;4935099;28;100604;-80
2024/04/01 04:21:39;;;;;;;11.70;5.07;;;;;;;12.56;63.92;99379.16;4940042;28;99880;-81
2024/04/01 04:24:04;;;;;;;8.82;5.75;;;;;;;12.54;63.96;99378.31;4913645;28;96737;-81
2024/04/01 04:26:30;;;;;;;11.45;5.88;;;;;;;12.51;64.18;99376.66;4934063;28;96807;-80
2024/04/01 04:28:55;;;;;;;11.45;5.53;;;;;;;12.51;64.10;99386.22;4941708;28;97896;-80
2024/04/01 04:31:21;;;;;;;10.88;5.32;;;;;;;12.48;64.25;99383.69;4933962;28;100403;-80
2024/04/01 04:33:47;;;;;;;11.75;5.97;;;;;;;12.46;64.22;99386.31;4936898;28;96826;-81
2024/04/01 04:36:13;;;;;;;10.18;5.50;;;;;;;12.45;64.21;99388.97;4941444;28;96880;-80
2024/04/01 04:38:39;;;;;;;8.23;5.22;;;;;;;12.46;64.32;99398.50;4937759;28;97725;-80
2024/04/01 04:41:04;;;;;;;10.23;5.43;;;;;;;12.47;64.39;99397.63;4928787;28;100373;-80
2024/04/01 04:43:30;;;;;;;8.63;5.60;;;;;;;12.50;64.47;99398.44;4939340;28;96903;-80
2024/04/01 04:45:57;;;;;;;11.80;5.95;;;;;;;12.53;64.57;99397.50;4935833;28;96918;-80
2024/04/01 04:48:22;;;;;;;12.07;5.65;;;;;;;12.55;64.52;99395.75;4938927;28;100219;-80
2024/04/01 04:50:48;;;;;;;9.45;5.55;;;;;;;12.56;64.42;99387.84;4941214;28;100535;-80
2024/04/01 04:53:13;;;;;;;9.07;5.57;;;;;;;12.59;64.46;99392.19;4931925;28;100691;-80
2024/04/01 04:55:42;;;;;;;9.00;5.63;;;;;;;12.60;64.14;99393.03;4939330;28;96931;-80
2024/04/01 04:58:09;;;;;;;9.98;5.70;;;;;;;12.61;64.06;99402.63;4938082;28;97593;-80
2024/04/01 05:00:34;;;;;;;9.95;5.57;;;;;;;12.60;64.29;99399.13;4927841;28;100763;-80
2024/04/01 05:03:00;;;;;;;7.43;5.05;;;;;;;12.61;64.33;99390.41;4923577;28;96943;-79
2024/04/01 05:05:25;;;;;;;10.15;5.70;;;;;;;12.62;64.30;99393.88;4921513;28;97034;-80
2024/04/01 05:07:51;;;;;;;9.90;5.82;;;;;;;12.61;64.34;99390.41;4943920;28;98069;-79
2024/04/01 05:10:17;;;;;;;6.93;4.80;;;;;;;12.60;64.44;99391.28;4943185;28;97942;-80
2024/04/01 05:12:42;;;;;;;11.57;5.10;;;;;;;12.61;64.21;99400.84;4942438;28;96841;-80
2024/04/01 05:15:09;;;;;;;9.27;5.10;;;;;;;12.62;64.06;99394.75;4928160;28;96930;-80
2024/04/01 05:17:35;;;;;;;10.57;5.65;;;;;;;12.62;64.08;99399.97;4941661;28;100353;-80
2024/04/01 05:20:01;;;;;;;10.63;5.18;;;;;;;12.62;64.07;99399.97;4946072;28;97833;-80
2024/04/01 05:22:27;;;;;;;9.13;5.10;;;;;;;12.61;64.04;99395.63;4944154;28;96910;-80
2024/04/01 05:24:54;;;;;;;7.93;4.95;;;;;;;12.61;63.96;99408.69;4943701;28;96947;-80
2024/04/01 05:27:20;;;;;;;8.65;4.70;;;;;;;12.60;64.32;99406.97;4934307;28;98070;-80
2024/04/01 05:29:57;;;;;;;7.82;5.03;;;;;;;12.60;64.32;99404.34;4943120;28;100652;-80
2024/04/01 05:32:23;;;;;;;8.38;5.40;;;;;;;12.60;64.27;99406.97;4941398;28;96837;-82
2024/04/01 05:34:51;;;;;;;6.82;4.60;;;;;;;12.61;64.36;99402.63;4942413;28;96949;-80
2024/04/01 05:37:16;;;;;;;10.18;5.00;;;;;;;12.61;64.33;99397.38;4942783;28;101042;-80
2024/04/01 05:39:42;;;;;;;7.97;4.78;;;;;;;12.62;64.45;99399.97;4943836;28;97751;-80
2024/04/01 05:42:07;;;;;;;8.20;4.82;;;;;;;12.64;64.48;99402.53;4937574;28;96921;-80
2024/04/01 05:44:32;;;;;;;9.70;4.65;;;;;;;12.67;64.58;99397.25;4927546;28;97106;-80
2024/04/01 05:46:58;;;;;;;8.43;5.53;;;;;;;12.69;64.46;99395.47;4939746;28;100619;-80
2024/04/01 05:49:23;;;;;;;8.57;4.60;;;;;;;12.71;64.41;99404.19;4943269;28;111146;-81
2024/04/01 05:51:49;;;;;;;7.70;4.82;;;;;;;12.71;64.27;99398.94;4946174;28;97014;-80
2024/04/01 05:54:14;;;;;;;7.68;4.38;;;;;;;12.73;64.30;99399.78;4942193;28;99086;-80
2024/04/01 05:56:39;;;;;;;8.40;4.57;;;;;;;12.75;64.30;99400.59;4922381;28;100572;-80
2024/04/01 05:59:05;;;;;;;8.05;4.40;;;;;;;12.75;64.39;99401.44;4939928;28;97440;-80
2024/04/01 06:01:30;;;;;;;6.53;4.80;;;;;;;12.77;64.34;99407.50;4943931;28;96732;-80
2024/04/01 06:03:55;;;;;;;8.75;4.35;;;;;;;12.80;64.39;99413.56;4940012;28;96791;-80
2024/04/01 06:06:21;;;;;;;8.77;4.47;;;;;;;12.79;64.46;99412.72;4926283;28;100135;-80
2024/04/01 06:08:46;;;;;;;6.75;4.30;;;;;;;12.80;64.47;99429.28;4940593;28;100443;-80
2024/04/01 06:11:11;;;;;;;10.80;4.40;;;;;;;12.80;64.60;99424.03;4947246;28;96950;-80
2024/04/01 06:13:37;;;;;;;7.13;4.32;;;;;;;12.80;64.52;99430.16;4925794;28;97534;-80
2024/04/01 06:16:03;;;;;;;9.05;4.72;;;;;;;12.81;64.63;99428.41;4926819;28;100699;-80
2024/04/01 06:18:28;;;;;;;8.13;4.57;;;;;;;12.80;64.77;99431.88;4927177;28;101014;-80
2024/04/01 06:20:54;;;;;;;10.07;4.13;;;;;;;12.80;64.64;99430.16;4928262;28;96805;-80
2024/04/01 06:23:19;;;;;;;6.30;4.05;;;;;;;12.82;64.87;99433.59;4934269;28;113332;-80
2024/04/01 06:25:44;;;;;;;9.60;3.90;;;;;;;12.84;64.71;99438.81;4938091;28;100548;-80
2024/04/01 06:28:10;;;;;;;8.88;4.03;;;;;;;12.86;64.77;99442.25;4943238;28;97524;-80
2024/04/01 06:30:35;;;;;;;6.38;3.90;;;;;;;12.87;64.77;99438.72;4935437;28;96874;-80
2024/04/01 06:33:01;;;;;;;8.50;4.45;;;;;;;12.88;64.58;99443.09;4933925;28;96842;-80
2024/04/01 06:35:27;;;;;;;8.63;4.28;;;;;;;12.88;64.90;99438.72;4938724;28;98202;-80
2024/04/01 06:37:52;;;;;;;8.05;4.70;;;;;;;12.91;64.80;99440.41;4919135;28;100415;-80
2024/04/01 06:40:17;;;;;;;6.65;4.13;;;;;;;12.92;64.86;99443.00;4918757;28;96932;-80
2024/04/01 06:42:43;;;;;;;8.77;4.13;;;;;;;12.96;64.56;99441.19;4932746;28;96830;-80
2024/04/01 06:45:08;;;;;;;8.88;4.47;;;;;;;12.99;64.87;99446.34;4935802;28;100166;-80
2024/04/01 06:47:34;;;;;;;9.20;4.53;;;;;;;13.02;65.08;99441.06;4943243;28;97912;-81
2024/04/01 06:49:59;;;;;;;7.85;4.75;;;;;;;13.04;64.82;99438.41;4938144;28;96867;-80
2024/04/01 06:52:24;;;;;;;7.50;4.38;;;;;;;13.07;64.79;99441.84;4935230;28;97003;-80
2024/04/01 06:54:50;;;;;;;7.22;4.43;;;;;;;13.09;64.58;99442.66;4935594;28;97631;-80
2024/04/01 06:57:16;;;;;;;8.75;4.30;;;;;;;13.16;64.81;99445.16;4918366;28;99757;-80
2024/04/01 06:59:41;;;;;;;9.98;4.70;;;;;;;13.18;64.75;99448.63;4945437;28;102115;-80
2024/04/01 07:02:07;;;;;;;7.00;4.47;;;;;;;13.21;64.61;99461.63;4938765;28;97078;-80
2024/04/01 07:04:32;;;;;;;10.52;4.50;;;;;;;13.23;64.73;99458.09;4938681;28;101664;-79
2024/04/01 07:06:58;;;;;;;8.95;5.00;;;;;;;13.24;64.71;99464.19;4936314;28;97389;-80
2024/04/01 07:09:23;;;;;;;7.63;4.80;;;;;;;13.26;64.77;99458.03;4945680;28;97153;-80
2024/04/01 07:11:48;;;;;;;8.40;4.78;;;;;;;13.30;64.60;99459.69;4928601;28;96896;-80
2024/04/01 07:14:14;;;;;;;8.68;4.72;;;;;;;13.30;64.70;99459.69;4942162;28;100148;-79
2024/04/01 07:16:39;;;;;;;8.95;5.40;;;;;;;13.32;64.87;99475.41;4942459;28;99593;-79
2024/04/01 07:19:05;;;;;;;7.90;4.80;;;;;;;13.32;64.64;99475.41;4943888;28;96932;-81
2024/04/01 07:21:32;;;;;;;8.20;4.78;;;;;;;13.33;64.85;99477.13;4946180;28;96948;-81
2024/04/01 07:23:57;;;;;;;8.25;5.10;;;;;;;13.32;64.78;99481.50;4941977;28;97397;-81
2024/04/01 07:26:23;;;;;;;8.63;5.05;;;;;;;13.33;64.85;99482.34;4943829;28;97503;-83
2024/04/01 07:28:48;;;;;;;9.55;5.85;;;;;;;13.36;64.98;99492.78;4933067;28;96990;-89
2024/04/01 07:31:13;;;;;;;12.77;6.00;;;;;;;13.36;64.84;99494.53;4950917;28;96967;-89
2024/04/01 07:33:39;;;;;;;10.77;6.20;;;;;;;13.36;64.93;99497.16;4945589;28;97705;-88
2024/04/01 07:36:05;;;;;;;10.38;5.63;;;;;;;13.37;64.81;99491.91;4947407;28;101544;-89
2024/04/01 07:38:30;;;;;;;13.43;6.05;;;;;;;13.38;64.95;99485.75;4949155;28;96857;-89
2024/04/01 07:40:55;;;;;;;10.27;5.65;;;;;;;13.42;64.87;99489.16;4947709;28;97069;-89
2024/04/01 07:43:21;;;;;;;10.88;6.13;;;;;;;13.44;64.95;99501.34;4932291;28;100375;-88
2024/04/01 07:45:48;;;;;;;12.13;6.45;;;;;;;13.46;65.01;99496.09;4927606;28;100509;-88
2024/04/01 07:48:13;;;;;;;13.15;6.50;;;;;;;13.47;64.77;99506.50;4940169;28;96867;-89
2024/04/01 07:50:38;;;;;;;10.50;6.35;;;;;;;13.50;65.01;99503.81;4944068;28;96765;-88
2024/04/01 07:53:04;;;;;;;13.82;6.82;;;;;;;13.52;64.99;99501.19;4944033;28;99212;-88
2024/04/01 07:55:29;;;;;;;12.65;7.05;;;;;;;13.56;64.82;99509.84;4934000;28;100761;-88
2024/04/01 07:57:55;;;;;;;11.13;6.70;;;;;;;13.57;64.91;99508.97;4945067;28;99107;-88
2024/04/01 08:00:20;;;;;;;11.75;6.68;;;;;;;13.58;64.78;99516.75;4947916;28;97424;-88
2024/04/01 08:02:45;;;;;;;11.98;6.55;;;;;;;13.60;64.47;99511.50;4929744;28;100654;-88
2024/04/01 08:05:11;;;;;;;10.82;6.10;;;;;;;13.59;64.65;99518.50;4927809;28;99786;-88
2024/04/01 08:07:36;;;;;;;12.45;6.70;;;;;;;13.61;64.72;99523.69;4925509;28;97108;-85
2024/04/01 08:10:02;;;;;;;13.63;7.88;;;;;;;13.60;64.66;99532.44;4940663;28;97544;-87
2024/04/01 08:12:27;;;;;;;11.10;6.47;;;;;;;13.60;64.51;99537.69;4942558;28;98070;-87
2024/04/01 08:14:53;;;;;;;13.80;7.32;;;;;;;13.59;64.40;99547.31;4942039;28;103383;-87
2024/04/01 08:17:18;;;;;;;11.48;7.07;;;;;;;13.57;64.56;99543.88;4941862;28;96876;-88
2024/04/01 08:19:47;;;;;;;10.30;6.43;;;;;;;13.57;64.70;99543.00;4943556;28;96984;-87
2024/04/01 08:22:14;;;;;;;12.80;7.45;;;;;;;13.58;64.64;99556.06;4942633;28;98031;-88
2024/04/01 08:24:43;;;;;;;13.75;7.13;;;;;;;13.60;64.74;99542.94;4944648;28;97894;-88
2024/04/01 08:27:09;;;;;;;12.80;6.90;;;;;;;13.62;64.41;99546.41;4945584;28;96943;-90
2024/04/01 08:29:35;;;;;;;13.18;7.13;;;;;;;13.63;64.65;99554.19;4949575;28;96906;-88
2024/04/01 08:32:00;;;;;;;15.23;7.07;;;;;;;13.63;64.66;99561.22;4937995;28;100261;-90
2024/04/01 08:34:26;;;;;;;14.00;7.32;;;;;;;13.66;64.75;99554.16;4949206;28;99089;-91
2024/04/01 08:36:51;;;;;;;11.85;6.35;;;;;;;13.69;65.02;99568.97;4934429;28;96715;-90
2024/04/01 08:39:17;;;;;;;13.55;6.93;;;;;;;13.71;64.65;99567.16;4955832;28;96797;-89
2024/04/01 08:41:51;;;;;;;9.60;5.78;;;;;;;13.70;64.34;99576.75;4940323;28;100146;-88
2024/04/01 08:44:18;;;;;;;11.00;6.55;;;;;;;13.71;64.43;99578.50;4943956;28;97819;-88
2024/04/01 08:46:45;;;;;;;13.57;6.90;;;;;;;13.72;64.58;99568.88;4965360;28;96826;-93
2024/04/01 08:49:12;;;;;;;12.65;7.15;;;;;;;13.74;64.52;99576.72;4942816;28;96995;-88
2024/04/01 08:51:38;;;;;;;11.25;6.38;;;;;;;13.74;64.46;99569.69;4938075;28;100490;-89
2024/04/01 08:54:08;;;;;;;11.50;6.75;;;;;;;13.77;64.60;99571.41;4955998;28;96798;-89
2024/04/01 08:56:39;;;;;;;13.43;6.22;;;;;;;13.77;64.72;99577.50;4955594;28;96788;-91
2024/04/01 08:59:05;;;;;;;10.20;6.55;;;;;;;13.81;64.53;99575.69;4954541;28;96853;-87
2024/04/01 09:01:31;;;;;;;10.70;6.28;;;;;;;13.83;64.65;99568.66;4946974;28;100608;-90
2024/04/01 09:03:57;;;;;;;10.85;6.07;;;;;;;13.86;64.24;99582.56;4954612;28;100568;-88
2024/04/01 09:06:22;;;;;;;11.90;6.10;;;;;;;13.89;64.55;99582.50;4954094;28;96730;-90
2024/04/01 09:08:51;;;;;;;13.32;6.40;;;;;;;13.92;64.56;99576.34;4935236;28;96844;-89
2024/04/01 09:11:18;;;;;;;11.43;6.65;;;;;;;13.97;64.40;99573.59;4956039;28;100254;-88
2024/04/01 09:13:46;;;;;;;9.25;5.65;;;;;;;13.99;64.22;99582.28;4955658;28;99595;-89
2024/04/01 09:16:12;;;;;;;11.55;6.40;;;;;;;14.01;64.14;99581.38;4934105;28;96773;-90
2024/04/01 09:18:37;;;;;;;12.55;6.78;;;;;;;14.03;64.08;99583.97;4951424;28;96724;-89
2024/04/01 09:21:04;;;;;;;11.68;6.53;;;;;;;14.04;64.20;99597.03;4951399;28;97950;-90
2024/04/01 09:23:33;;;;;;;11.15;6.90;;;;;;;14.06;64.13;99604.84;4949784;28;97835;-90
2024/04/01 09:25:59;;;;;;;9.65;6.18;;;;;;;14.09;64.21;99615.28;4949096;28;96906;-90
2024/04/01 09:28:25;;;;;;;10.68;5.95;;;;;;;14.11;64.19;99631.84;4947225;28;96978;-90
2024/04/01 09:30:50;;;;;;;10.30;6.25;;;;;;;14.14;64.32;99636.19;4937500;28;100644;-90
2024/04/01 09:33:16;;;;;;;11.18;6.20;;;;;;;14.18;64.07;99638.69;4950226;28;97630;-90
2024/04/01 09:35:41;;;;;;;8.70;5.22;;;;;;;14.20;63.92;99629.03;4945217;28;96776;-93
2024/04/01 09:38:08;;;;;;;10.60;5.18;;;;;;;14.21;63.44;99630.75;4934585;28;96973;-92
2024/04/01 09:40:33;;;;;;;9.73;5.40;;;;;;;14.22;63.68;99629.84;4945540;28;100152;-92
2024/04/01 09:43:00;;;;;;;8.13;5.07;;;;;;;14.24;63.49;99628.09;4938065;28;97474;-89
2024/04/01 09:45:28;;;;;;;8.73;5.28;;;;;;;14.24;63.49;99629.81;4946190;28;97340;-90
2024/04/01 09:47:54;;;;;;;8.20;4.78;;;;;;;14.25;63.52;99623.69;4927334;28;97007;-90
2024/04/01 09:50:21;;;;;;;8.50;5.07;;;;;;;14.28;63.27;99631.50;4925291;28;100282;-92
2024/04/01 09:52:46;;;;;;;7.82;4.80;;;;;;;14.29;63.46;99622.72;4947801;28;97448;-90
2024/04/01 09:55:20;;;;;;;10.25;4.47;;;;;;;14.32;63.28;99629.66;4927449;28;96695;-91
2024/04/01 09:58:00;;;;;;;8.88;4.72;;;;;;;14.33;63.20;99620.88;4957834;28;96701;-89
2024/04/01 10:00:51;;;;;;;9.82;5.15;;;;;;;14.35;62.82;99627.84;4949915;28;100316;-91
2024/04/01 10:03:51;;;;;;;7.85;5.15;;;;;;;14.33;63.01;99628.75;4891106;28;100575;-89
2024/04/01 10:06:34;;;;;;;12.18;5.03;;;;;;;14.32;62.89;99632.28;4905381;28;96977;-91
2024/04/01 10:09:06;;;;;;;10.93;5.57;;;;;;;14.31;62.85;99634.03;4893312;28;96856;-90
2024/04/01 10:11:53;;;;;;;9.48;5.63;;;;;;;14.32;63.09;99627.91;4904256;28;100811;-91
2024/04/01 10:14:39;;;;;;;9.98;5.72;;;;;;;14.34;63.36;99638.38;4903012;28;100586;-90
2024/04/01 10:17:04;;;;;;;10.30;5.85;;;;;;;14.37;63.14;99640.94;4874271;28;96791;-90
2024/04/01 10:19:37;;;;;;;15.70;6.30;;;;;;;14.34;62.95;99648.84;4903741;28;97358;-89
2024/04/01 10:22:22;;;;;;;10.85;6.22;;;;;;;14.34;62.58;99648.84;4889391;28;100487;-91
2024/04/01 10:25:00;;;;;;;13.40;6.63;;;;;;;14.32;62.70;99648.88;4891715;28;100695;-91
2024/04/01 10:27:56;;;;;;;13.10;6.25;;;;;;;14.31;62.72;99652.38;4912437;28;97349;-92
2024/04/01 10:31:08;;;;;;;15.45;6.65;;;;;;;14.30;62.72;99650.69;4884025;28;96863;-92
2024/04/01 10:33:36;;;;;;;11.95;5.40;;;;;;;14.32;62.68;99654.13;4891367;28;100495;-89
2024/04/01 10:36:14;;;;;;;9.98;5.90;;;;;;;14.30;62.76;99652.44;4895326;28;100397;-91
2024/04/01 10:39:01;;;;;;;11.40;5.60;;;;;;;14.32;62.28;99655.91;4887688;28;96850;-93
2024/04/01 10:41:38;;;;;;;10.38;5.45;;;;;;;14.31;62.23;99660.25;4944801;28;96698;-93
2024/04/01 10:44:28;;;;;;;11.85;5.15;;;;;;;14.28;62.13;99660.34;4952269;28;96800;-93
2024/04/01 10:47:16;;;;;;;10.45;5.38;;;;;;;14.24;62.58;99664.81;4935612;28;98559;-91
2024/04/01 10:49:50;;;;;;;9.73;5.28;;;;;;;14.25;62.07;99663.88;4939893;28;96809;-93
2024/04/01 10:52:31;;;;;;;7.25;4.43;;;;;;;14.25;62.05;99669.13;4958644;28;97026;-93
2024/04/01 10:55:02;;;;;;;11.68;4.82;;;;;;;14.25;62.01;99668.28;4959156;28;100629;-92
2024/04/01 10:58:01;;;;;;;12.98;4.65;;;;;;;14.22;62.11;99674.44;4946691;28;100642;-92
2024/04/01 11:00:43;;;;;;;12.05;4.68;;;;;;;14.23;62.16;99673.53;4946810;28;96810;-92
2024/04/01 11:03:38;;;;;;;9.05;4.43;;;;;;;14.27;62.41;99674.34;4958641;28;96660;-96
2024/04/01 11:06:39;;;;;;;9.30;3.92;;;;;;;14.28;61.99;99678.72;4887065;28;99605;-96
2024/04/01 11:09:36;;;;;;;11.50;4.38;;;;;;;14.30;61.77;99678.69;4902680;28;98476;-94
2024/04/01 11:12:17;;;;;;;6.00;3.50;;;;;;;14.30;61.63;99683.94;4859285;29;96960;-94
2024/04/01 11:14:45;;;;;;;9.55;3.83;;;;;;;14.29;61.59;99685.66;4844167;28;97276;-94
2024/04/01 11:17:11;;;;;;;11.50;4.07;;;;;;;14.30;61.59;99683.94;4808214;29;99805;-95
2024/04/01 11:19:51;;;;;;;11.27;4.03;;;;;;;14.30;61.73;99686.56;4843378;29;96749;-95
2024/04/01 11:22:43;;;;;;;10.60;3.67;;;;;;;14.31;61.78;99698.75;4832558;29;96687;-94
2024/04/01 11:25:19;;;;;;;9.80;3.50;;;;;;;14.33;61.25;99689.09;4831793;29;96550;-94
2024/04/01 11:27:56;;;;;;;10.43;3.47;;;;;;;14.35;61.37;99703.91;4831163;29;98129;-95
2024/04/01 11:30:26;;;;;;;12.35;4.18;;;;;;;14.39;61.62;99704.72;4831758;29;100882;-94